Diest, Belgium
Current Conditions -  °F | °C
As of 8:25 AM on Monday 22 Dec 2014 (Local Time) from EBDT Reporting Station
Overcast Overcast  
Wind Chill: 42°   Ceiling: 1300
Heat Index: 48°   Visibility: 6mi
Dew Point: 43°   Wind: 16mph
Humidity: 82%   Direction: 230°SW
Pressure: 30.15"   Gusts: 32mph
Location:  50.98°N, 5.05°E
Report Text: EBDT 220725Z AUTO 23014G28KT 9999 BKN013/// OVC016/// 09/06 Q1021 GRN
Loading
Personal Weather Stations






























Interactive Weather Map New forecast layout! Learn more

10-Day Weather Forecast

Advertisements
Track Severe Weather on mobile